createdAt,value
2018-07-21T00:02:23.806Z,11.13
2018-07-21T00:04:52.969Z,7.07
2018-07-21T00:07:22.118Z,9.03
2018-07-21T00:09:51.543Z,8.93
2018-07-21T00:12:20.693Z,8.57
2018-07-21T00:14:49.797Z,8.40
2018-07-21T00:17:19.158Z,7.40
2018-07-21T00:19:48.400Z,7.20
2018-07-21T00:22:17.512Z,8.77
2018-07-21T00:24:46.593Z,7.97
2018-07-21T00:27:15.913Z,7.50
2018-07-21T00:29:44.639Z,8.13
2018-07-21T00:32:13.853Z,7.83
2018-07-21T00:34:42.952Z,8.73
2018-07-21T00:37:12.035Z,8.07
2018-07-21T00:39:41.230Z,8.23
2018-07-21T00:42:10.488Z,9.83
2018-07-21T00:44:45.934Z,9.63
2018-07-21T00:47:15.011Z,8.33
2018-07-21T00:49:44.389Z,12.27
2018-07-21T00:52:13.603Z,8.70
2018-07-21T00:54:43.120Z,9.77
2018-07-21T00:57:12.461Z,12.17
2018-07-21T00:59:41.707Z,11.17
2018-07-21T01:02:10.632Z,12.83
2018-07-21T01:04:39.491Z,9.87
2018-07-21T01:07:08.416Z,10.47
2018-07-21T01:09:37.508Z,10.10
2018-07-21T01:12:06.376Z,9.53
2018-07-21T01:14:35.227Z,9.67
2018-07-21T01:17:04.144Z,9.53
2018-07-21T01:19:33.025Z,9.67
2018-07-21T01:22:01.921Z,9.07
2018-07-21T01:24:30.843Z,9.77
2018-07-21T01:26:59.981Z,10.50
2018-07-21T01:29:29.043Z,9.50
2018-07-21T01:31:58.130Z,13.93
2018-07-21T01:34:27.023Z,10.27
2018-07-21T01:36:55.813Z,10.80
2018-07-21T01:39:24.843Z,10.50
2018-07-21T01:41:53.688Z,9.30
2018-07-21T01:44:22.613Z,9.03
2018-07-21T01:46:51.480Z,9.10
2018-07-21T01:49:20.594Z,14.23
2018-07-21T01:51:49.039Z,10.93
2018-07-21T01:54:17.906Z,9.67
2018-07-21T01:56:46.746Z,13.17
2018-07-21T01:59:15.511Z,15.53
2018-07-21T02:01:45.066Z,9.30
2018-07-21T02:04:14.333Z,11.33
2018-07-21T02:06:43.374Z,9.70
2018-07-21T02:09:12.524Z,14.17
2018-07-21T02:11:41.570Z,9.77
2018-07-21T02:14:11.427Z,9.90
2018-07-21T02:16:40.802Z,12.13
2018-07-21T02:19:09.653Z,11.53
2018-07-21T02:21:38.527Z,9.27
2018-07-21T02:24:07.483Z,10.37
2018-07-21T02:26:36.598Z,11.43
2018-07-21T02:29:05.497Z,10.97
2018-07-21T02:31:34.348Z,10.27
2018-07-21T02:34:03.249Z,8.90
2018-07-21T02:36:32.113Z,11.23
2018-07-21T02:39:01.231Z,9.17
2018-07-21T02:41:30.313Z,9.53
2018-07-21T02:43:59.437Z,8.83
2018-07-21T02:46:28.303Z,9.40
2018-07-21T02:48:57.413Z,12.97
2018-07-21T02:51:26.277Z,12.73
2018-07-21T02:53:55.392Z,9.63
2018-07-21T02:56:24.452Z,9.77
2018-07-21T02:58:53.359Z,12.30
2018-07-21T03:01:22.223Z,10.97
2018-07-21T03:03:51.088Z,9.10
2018-07-21T03:06:20.124Z,13.10
2018-07-21T03:08:49.235Z,13.07
2018-07-21T03:11:18.269Z,14.07
2018-07-21T03:13:46.739Z,9.20
2018-07-21T03:16:15.657Z,11.27
2018-07-21T03:18:44.550Z,12.63
2018-07-21T03:21:13.442Z,11.20
2018-07-21T03:23:48.753Z,11.47
2018-07-21T03:26:17.668Z,11.17
2018-07-21T03:28:46.524Z,12.77
2018-07-21T03:31:15.378Z,9.97
2018-07-21T03:33:44.411Z,13.50
2018-07-21T03:36:13.955Z,12.10
2018-07-21T03:38:42.767Z,10.10
2018-07-21T03:41:11.902Z,10.70
2018-07-21T03:43:40.945Z,9.70
2018-07-21T03:46:09.842Z,11.33
2018-07-21T03:48:38.727Z,12.67
2018-07-21T03:51:07.662Z,10.07
2018-07-21T03:53:36.532Z,9.83
2018-07-21T03:56:05.845Z,13.93
2018-07-21T03:58:34.686Z,12.37
2018-07-21T04:01:03.633Z,11.43
2018-07-21T04:03:32.506Z,13.73
2018-07-21T04:06:01.383Z,11.17
2018-07-21T04:08:30.227Z,10.23
2018-07-21T04:10:59.185Z,10.80
2018-07-21T04:13:28.238Z,12.50
2018-07-21T04:15:57.649Z,12.37
2018-07-21T04:18:27.164Z,12.10
2018-07-21T04:20:56.639Z,10.03
2018-07-21T04:23:26.264Z,10.30
2018-07-21T04:25:55.599Z,10.87
2018-07-21T04:28:24.988Z,11.50
2018-07-21T04:30:54.193Z,13.20
2018-07-21T04:33:24.126Z,10.00
2018-07-21T04:35:53.531Z,17.63
2018-07-21T04:38:22.668Z,11.63
2018-07-21T04:40:52.059Z,11.93
2018-07-21T04:43:21.588Z,11.83
2018-07-21T04:45:50.922Z,10.03
2018-07-21T04:48:20.072Z,10.23
2018-07-21T04:50:49.278Z,10.10
2018-07-21T04:53:18.482Z,11.40
2018-07-21T04:55:47.798Z,12.83
2018-07-21T04:58:17.096Z,10.90
2018-07-21T05:00:46.507Z,10.47
2018-07-21T05:03:15.293Z,14.17
2018-07-21T05:05:44.249Z,12.37
2018-07-21T05:08:13.303Z,11.97
2018-07-21T05:10:42.188Z,9.83
2018-07-21T05:13:11.039Z,10.47
2018-07-21T05:15:40.707Z,10.70
2018-07-21T05:18:09.571Z,10.40
2018-07-21T05:20:39.403Z,11.70
2018-07-21T05:23:08.319Z,12.77
2018-07-21T05:25:37.349Z,12.33
2018-07-21T05:28:06.321Z,10.10
2018-07-21T05:30:35.353Z,10.03
2018-07-21T05:33:04.437Z,10.83
2018-07-21T05:35:33.348Z,10.80
2018-07-21T05:38:02.211Z,13.00
2018-07-21T05:40:31.110Z,10.80
2018-07-21T05:42:59.592Z,10.97
2018-07-21T05:45:28.929Z,11.67
2018-07-21T05:47:57.781Z,12.93
2018-07-21T05:50:26.413Z,10.97
2018-07-21T05:52:55.301Z,12.20
2018-07-21T05:55:24.203Z,14.70
2018-07-21T05:57:53.285Z,10.50
2018-07-21T06:00:22.150Z,10.80
2018-07-21T06:02:51.131Z,10.70
2018-07-21T06:05:20.187Z,10.17
2018-07-21T06:07:49.146Z,12.73
2018-07-21T06:10:18.130Z,11.47
2018-07-21T06:12:46.998Z,10.03
2018-07-21T06:15:15.883Z,10.47
2018-07-21T06:17:44.705Z,9.63
2018-07-21T06:20:13.558Z,10.73
2018-07-21T06:22:42.466Z,10.20
2018-07-21T06:25:11.324Z,10.17
2018-07-21T06:27:40.198Z,10.43
2018-07-21T06:30:09.056Z,10.53
2018-07-21T06:32:37.943Z,11.87
2018-07-21T06:35:07.349Z,15.83
2018-07-21T06:37:36.279Z,8.73
2018-07-21T06:40:05.857Z,9.13
2018-07-21T06:42:34.635Z,9.50
2018-07-21T06:45:03.533Z,12.33
2018-07-21T06:47:32.525Z,10.03
2018-07-21T06:50:01.346Z,9.87
2018-07-21T06:52:30.234Z,9.90
2018-07-21T06:54:59.301Z,13.03
2018-07-21T06:57:28.306Z,9.60
2018-07-21T06:59:57.215Z,13.93
2018-07-21T07:02:26.320Z,10.73
2018-07-21T07:04:55.382Z,11.10
2018-07-21T07:07:25.031Z,10.40
2018-07-21T07:09:53.889Z,10.80
2018-07-21T07:12:22.809Z,12.37
2018-07-21T07:14:51.659Z,11.27
2018-07-21T07:17:20.566Z,14.33
2018-07-21T07:19:49.525Z,11.80
2018-07-21T07:22:19.519Z,11.00
2018-07-21T07:24:48.355Z,10.57
2018-07-21T07:27:17.287Z,12.73
2018-07-21T07:29:46.325Z,11.90
2018-07-21T07:32:15.466Z,12.33
2018-07-21T07:34:44.495Z,13.40
2018-07-21T07:37:13.398Z,12.90
2018-07-21T07:39:42.278Z,12.53
2018-07-21T07:42:11.314Z,13.67
2018-07-21T07:44:40.152Z,17.50
2018-07-21T07:47:09.051Z,14.30
2018-07-21T07:49:38.027Z,15.97
2018-07-21T07:52:06.964Z,15.17
2018-07-21T07:54:35.837Z,13.67
2018-07-21T07:57:04.722Z,14.30
2018-07-21T07:59:33.634Z,17.83
2018-07-21T08:02:02.110Z,17.30
2018-07-21T08:04:31.252Z,14.70
2018-07-21T08:07:00.314Z,14.87
2018-07-21T08:09:29.172Z,14.00
2018-07-21T08:11:58.304Z,16.97
2018-07-21T08:14:27.386Z,14.27
2018-07-21T08:16:56.464Z,18.47
2018-07-21T08:19:25.348Z,16.83
2018-07-21T08:21:54.513Z,14.77
2018-07-21T08:24:24.515Z,15.20
2018-07-21T08:26:53.452Z,16.93
2018-07-21T08:29:22.393Z,15.33
2018-07-21T08:31:51.268Z,16.37
2018-07-21T08:34:20.693Z,16.80
2018-07-21T08:36:49.562Z,19.10
2018-07-21T08:39:18.439Z,18.23
2018-07-21T08:41:47.452Z,19.97
2018-07-21T08:44:16.568Z,18.07
2018-07-21T08:46:45.398Z,18.37
2018-07-21T08:49:14.299Z,19.20
2018-07-21T08:51:43.166Z,17.37
2018-07-21T08:54:12.210Z,18.83
2018-07-21T08:56:41.163Z,18.77
2018-07-21T08:59:10.095Z,17.43
2018-07-21T09:01:39.289Z,18.40
2018-07-21T09:04:08.303Z,19.03
2018-07-21T09:06:37.102Z,17.10
2018-07-21T09:09:09.445Z,19.20
2018-07-21T09:11:38.323Z,17.87
2018-07-21T09:14:07.268Z,21.17
2018-07-21T09:16:36.177Z,18.83
2018-07-21T09:19:05.355Z,18.53
2018-07-21T09:21:34.452Z,16.83
2018-07-21T09:24:03.294Z,18.20
2018-07-21T09:26:32.411Z,20.07
2018-07-21T09:29:01.310Z,19.63
2018-07-21T09:31:30.179Z,20.27
2018-07-21T09:33:59.269Z,22.43
2018-07-21T09:36:28.569Z,20.37
2018-07-21T09:38:57.498Z,21.23
2018-07-21T09:41:27.199Z,19.10
2018-07-21T09:43:56.516Z,17.80
2018-07-21T09:46:25.772Z,18.53
2018-07-21T09:48:55.529Z,21.23
2018-07-21T09:51:24.902Z,18.37
2018-07-21T09:53:54.374Z,18.90
2018-07-21T09:56:23.676Z,18.60
2018-07-21T09:58:52.882Z,18.03
2018-07-21T10:01:22.290Z,18.93
2018-07-21T10:03:51.628Z,16.90
2018-07-21T10:06:20.939Z,20.17
2018-07-21T10:08:50.649Z,17.80
2018-07-21T10:11:19.499Z,18.10
2018-07-21T10:13:48.454Z,21.35
2018-07-21T10:16:17.530Z,21.20
2018-07-21T10:18:46.475Z,18.00
2018-07-21T10:21:15.310Z,18.87
2018-07-21T10:23:44.438Z,18.12
2018-07-21T10:26:18.453Z,18.65
2018-07-21T10:28:53.099Z,17.45
2018-07-21T10:31:22.204Z,16.82
2018-07-21T10:33:51.069Z,16.87
2018-07-21T10:36:20.088Z,16.55
2018-07-21T10:38:49.019Z,17.80
2018-07-21T10:41:17.872Z,18.32
2018-07-21T10:43:46.778Z,16.77
2018-07-21T10:46:15.623Z,16.25
2018-07-21T10:48:44.566Z,16.60
2018-07-21T10:51:13.650Z,18.10
2018-07-21T10:53:42.564Z,17.45
2018-07-21T10:56:11.625Z,19.42
2018-07-21T10:58:40.513Z,16.25
2018-07-21T11:01:09.395Z,16.60
2018-07-21T11:03:38.311Z,16.07
2018-07-21T11:06:07.209Z,16.48
2018-07-21T11:08:36.055Z,14.98
2018-07-21T11:11:04.965Z,19.82
2018-07-21T11:13:33.954Z,15.95
2018-07-21T11:16:02.941Z,15.13
2018-07-21T11:18:32.004Z,14.07
2018-07-21T11:21:01.030Z,15.32
2018-07-21T11:23:30.006Z,15.20
2018-07-21T11:25:58.913Z,14.10
2018-07-21T11:28:28.357Z,16.35
2018-07-21T11:30:57.680Z,14.58
2018-07-21T11:33:26.963Z,14.18
2018-07-21T11:35:56.569Z,14.60
2018-07-21T11:38:25.661Z,14.70
2018-07-21T11:40:55.251Z,19.40
2018-07-21T11:43:24.542Z,14.65
2018-07-21T11:45:54.061Z,15.25
2018-07-21T11:48:23.263Z,12.93
2018-07-21T11:50:52.878Z,14.90
2018-07-21T11:53:22.298Z,15.45
2018-07-21T11:55:51.955Z,15.35
2018-07-21T11:58:21.201Z,15.23
2018-07-21T12:00:50.429Z,13.80
2018-07-21T12:03:19.833Z,16.02
2018-07-21T12:05:49.229Z,15.28
2018-07-21T12:08:18.657Z,13.30
2018-07-21T12:10:47.983Z,15.30
2018-07-21T12:13:17.437Z,15.48
2018-07-21T12:15:46.758Z,14.35
2018-07-21T12:18:16.314Z,15.70
2018-07-21T12:20:45.896Z,16.32
2018-07-21T12:23:15.181Z,14.93
2018-07-21T12:25:44.547Z,15.58
2018-07-21T12:28:13.694Z,13.60
2018-07-21T12:30:43.300Z,16.02
2018-07-21T12:33:12.520Z,15.65
2018-07-21T12:35:42.393Z,15.23
2018-07-21T12:38:11.810Z,16.48
2018-07-21T12:40:41.154Z,14.87
2018-07-21T12:43:10.674Z,16.57
2018-07-21T12:45:39.970Z,15.30
2018-07-21T12:48:09.381Z,16.23
2018-07-21T12:50:38.889Z,13.98
2018-07-21T12:53:08.122Z,15.88
2018-07-21T12:55:37.485Z,15.05
2018-07-21T12:58:06.990Z,15.38
2018-07-21T13:00:36.549Z,16.70
2018-07-21T13:03:06.093Z,15.28
2018-07-21T13:05:35.419Z,14.05
2018-07-21T13:08:04.715Z,14.18
2018-07-21T13:10:34.152Z,13.48
2018-07-21T13:13:03.424Z,17.40
2018-07-21T13:15:32.681Z,14.05
2018-07-21T13:18:02.019Z,14.28
2018-07-21T13:20:31.389Z,14.10
2018-07-21T13:23:01.092Z,12.47
2018-07-21T13:25:30.328Z,12.23
2018-07-21T13:27:59.650Z,14.68
2018-07-21T13:30:29.184Z,12.15
2018-07-21T13:32:58.446Z,12.37
2018-07-21T13:35:27.843Z,12.03
2018-07-21T13:37:57.176Z,12.90
2018-07-21T13:40:27.238Z,13.85
2018-07-21T13:42:56.501Z,12.60
2018-07-21T13:45:25.984Z,13.43
2018-07-21T13:47:55.488Z,13.13
2018-07-21T13:50:24.841Z,13.25
2018-07-21T13:52:54.240Z,12.55
2018-07-21T13:55:23.102Z,14.70
2018-07-21T13:57:51.990Z,13.53
2018-07-21T14:00:20.848Z,13.60
2018-07-21T14:02:49.952Z,14.35
2018-07-21T14:05:18.928Z,13.35
2018-07-21T14:07:48.185Z,12.90
2018-07-21T14:10:17.895Z,13.08
2018-07-21T14:12:47.048Z,13.10
2018-07-21T14:15:16.378Z,12.65
2018-07-21T14:17:45.924Z,13.28
2018-07-21T14:20:15.063Z,12.60
2018-07-21T14:22:44.786Z,13.15
2018-07-21T14:25:14.170Z,13.18
2018-07-21T14:27:43.415Z,12.78
2018-07-21T14:30:12.724Z,11.85
2018-07-21T14:32:42.249Z,12.28
2018-07-21T14:35:11.583Z,12.43
2018-07-21T14:37:41.086Z,11.38
2018-07-21T14:40:10.736Z,11.43
2018-07-21T14:42:40.299Z,12.30
2018-07-21T14:45:09.500Z,12.68
2018-07-21T14:47:38.942Z,12.63
2018-07-21T14:50:08.386Z,12.25
2018-07-21T14:52:38.170Z,12.05
2018-07-21T14:55:07.686Z,12.85
2018-07-21T14:57:36.729Z,11.40
2018-07-21T15:00:06.700Z,11.25
2018-07-21T15:02:35.825Z,12.65
2018-07-21T15:05:05.240Z,15.55
2018-07-21T15:07:34.154Z,13.85
2018-07-21T15:10:03.285Z,12.70
2018-07-21T15:12:32.395Z,16.23
2018-07-21T15:15:01.472Z,10.68
2018-07-21T15:17:31.416Z,11.33
2018-07-21T15:20:00.579Z,12.53
2018-07-21T15:22:29.779Z,12.60
2018-07-21T15:24:59.510Z,12.28
2018-07-21T15:27:28.792Z,12.95
2018-07-21T15:29:58.071Z,12.47
2018-07-21T15:32:26.980Z,13.30
2018-07-21T15:34:55.975Z,15.67
2018-07-21T15:37:25.020Z,15.83
2018-07-21T15:39:54.351Z,17.43
2018-07-21T15:42:23.459Z,21.37
2018-07-21T15:44:52.440Z,17.00
2018-07-21T15:47:21.688Z,16.57
2018-07-21T15:49:50.701Z,16.90
2018-07-21T15:52:19.734Z,17.60
2018-07-21T15:54:48.798Z,18.10
2018-07-21T15:57:17.876Z,18.23
2018-07-21T15:59:46.920Z,18.67
2018-07-21T16:02:15.964Z,20.03
2018-07-21T16:04:44.989Z,21.50
2018-07-21T16:07:14.124Z,21.77
2018-07-21T16:09:43.386Z,20.50
2018-07-21T16:12:12.743Z,23.10
2018-07-21T16:14:41.829Z,31.03
2018-07-21T16:17:11.160Z,34.60
2018-07-21T16:19:40.330Z,32.33
2018-07-21T16:22:09.788Z,29.47
2018-07-21T16:24:38.978Z,25.03
2018-07-21T16:27:08.040Z,19.23
2018-07-21T16:29:38.161Z,19.80
2018-07-21T16:32:07.256Z,14.40
2018-07-21T16:34:36.324Z,12.57
2018-07-21T16:37:05.497Z,13.53
2018-07-21T16:39:34.694Z,14.60
2018-07-21T16:42:04.030Z,15.07
2018-07-21T16:44:33.827Z,13.40
2018-07-21T16:47:02.798Z,13.80
2018-07-21T16:49:31.844Z,17.87
2018-07-21T16:52:00.942Z,17.60
2018-07-21T16:54:30.175Z,17.67
2018-07-21T16:56:59.188Z,25.63
2018-07-21T16:59:28.185Z,23.40
2018-07-21T17:01:57.278Z,24.20
2018-07-21T17:04:26.417Z,24.17
2018-07-21T17:06:55.750Z,25.70
2018-07-21T17:09:24.802Z,24.57
2018-07-21T17:11:53.790Z,26.40
2018-07-21T17:14:23.316Z,25.33
2018-07-21T17:16:52.535Z,25.10
2018-07-21T17:19:21.885Z,22.43
2018-07-21T17:21:50.867Z,22.87
2018-07-21T17:24:19.986Z,23.37
2018-07-21T17:26:49.335Z,22.40
2018-07-21T17:29:18.658Z,21.90
2018-07-21T17:31:47.854Z,20.60
2018-07-21T17:34:16.947Z,19.30
2018-07-21T17:36:45.992Z,21.23
2018-07-21T17:39:15.025Z,20.97
2018-07-21T17:41:44.248Z,23.30
2018-07-21T17:44:13.092Z,25.43
2018-07-21T17:46:42.184Z,21.17
2018-07-21T17:49:11.073Z,25.90
2018-07-21T17:51:40.113Z,23.97
2018-07-21T17:54:09.220Z,26.43
2018-07-21T17:56:37.867Z,27.43
2018-07-21T17:59:07.014Z,26.37
2018-07-21T18:01:36.947Z,27.13
2018-07-21T18:04:06.117Z,27.40
2018-07-21T18:06:35.006Z,28.43
2018-07-21T18:09:05.174Z,26.73
2018-07-21T18:11:34.433Z,25.67
2018-07-21T18:14:03.502Z,22.17
2018-07-21T18:16:32.555Z,24.07
2018-07-21T18:19:01.680Z,24.60
2018-07-21T18:21:30.645Z,28.77
2018-07-21T18:24:00.104Z,27.27
2018-07-21T18:26:29.133Z,26.60
2018-07-21T18:28:58.470Z,24.60
2018-07-21T18:31:27.378Z,24.43
2018-07-21T18:33:56.428Z,23.30
2018-07-21T18:36:25.415Z,24.90
2018-07-21T18:38:54.448Z,23.67
2018-07-21T18:41:23.470Z,25.07
2018-07-21T18:43:52.698Z,27.03
2018-07-21T18:46:21.628Z,28.47
2018-07-21T18:48:50.725Z,29.67
2018-07-21T18:51:19.769Z,27.90
2018-07-21T18:53:48.824Z,26.90
2018-07-21T18:56:17.794Z,28.73
2018-07-21T18:58:46.701Z,31.40
2018-07-21T19:01:15.765Z,31.43
2018-07-21T19:03:44.802Z,23.00
2018-07-21T19:06:13.945Z,25.20
2018-07-21T19:08:48.189Z,28.93
2018-07-21T19:11:17.283Z,28.97
2018-07-21T19:13:46.338Z,27.73
2018-07-21T19:16:20.449Z,29.20
2018-07-21T19:18:49.763Z,28.10
2018-07-21T19:21:20.333Z,29.90
2018-07-21T19:23:50.279Z,29.80
2018-07-21T19:26:24.308Z,31.30
2018-07-21T19:28:53.500Z,31.97
2018-07-21T19:31:22.672Z,21.93
2018-07-21T19:33:51.563Z,30.23
2018-07-21T19:36:20.641Z,20.87
2018-07-21T19:38:49.954Z,31.93
2018-07-21T19:41:24.175Z,31.13
2018-07-21T19:43:53.118Z,29.40
2018-07-21T19:46:25.248Z,26.43
2018-07-21T19:48:54.119Z,22.40
2018-07-21T19:51:23.053Z,22.83
2018-07-21T19:53:52.018Z,24.80
2018-07-21T19:56:21.050Z,20.03
2018-07-21T19:58:49.978Z,22.77
2018-07-21T20:01:19.227Z,22.37
2018-07-21T20:03:48.170Z,21.13
2018-07-21T20:06:17.090Z,23.63
2018-07-21T20:08:46.037Z,22.57
2018-07-21T20:11:15.078Z,21.60
2018-07-21T20:13:44.237Z,16.53
2018-07-21T20:16:13.132Z,18.03
2018-07-21T20:18:42.202Z,17.33
2018-07-21T20:21:11.408Z,16.60
2018-07-21T20:23:40.318Z,17.60
2018-07-21T20:26:09.518Z,15.93
2018-07-21T20:28:38.576Z,15.27
2018-07-21T20:31:07.718Z,14.97
2018-07-21T20:33:36.852Z,14.10
2018-07-21T20:36:06.085Z,13.97
2018-07-21T20:38:35.152Z,13.90
2018-07-21T20:41:04.082Z,13.17
2018-07-21T20:43:33.108Z,13.40
2018-07-21T20:46:02.159Z,12.27
2018-07-21T20:48:31.315Z,12.03
2018-07-21T20:51:00.507Z,12.20
2018-07-21T20:53:29.509Z,12.97
2018-07-21T20:55:58.574Z,12.77
2018-07-21T20:58:27.599Z,11.60
2018-07-21T21:00:56.972Z,12.33
2018-07-21T21:03:26.117Z,11.43
2018-07-21T21:05:55.157Z,11.23
2018-07-21T21:08:24.178Z,11.73
2018-07-21T21:10:53.219Z,12.47
2018-07-21T21:13:22.252Z,11.73
2018-07-21T21:15:51.334Z,11.90
2018-07-21T21:18:20.372Z,11.23
2018-07-21T21:20:49.352Z,12.07
2018-07-21T21:23:18.735Z,10.90
2018-07-21T21:25:47.842Z,11.60
2018-07-21T21:28:17.103Z,11.73
2018-07-21T21:30:46.183Z,12.03
2018-07-21T21:33:15.272Z,11.80
2018-07-21T21:35:44.295Z,12.00
2018-07-21T21:38:13.353Z,11.87
2018-07-21T21:40:42.389Z,11.87
2018-07-21T21:43:11.366Z,11.67
2018-07-21T21:45:40.364Z,11.57
2018-07-21T21:48:09.451Z,11.77
2018-07-21T21:50:38.435Z,12.23
2018-07-21T21:53:07.524Z,13.30
2018-07-21T21:55:36.480Z,12.73
2018-07-21T21:58:05.894Z,12.07
2018-07-21T22:01:16.141Z,12.17
2018-07-21T22:03:52.474Z,12.63
2018-07-21T22:06:21.710Z,12.83
2018-07-21T22:08:50.708Z,13.70
2018-07-21T22:11:19.673Z,13.00
2018-07-21T22:13:48.664Z,13.37
2018-07-21T22:16:17.821Z,14.10
2018-07-21T22:18:46.870Z,13.90
2018-07-21T22:21:15.921Z,14.70
2018-07-21T22:23:44.973Z,14.83
2018-07-21T22:26:14.202Z,14.40
2018-07-21T22:28:43.223Z,14.60
2018-07-21T22:31:12.370Z,15.13
2018-07-21T22:33:41.649Z,15.33
2018-07-21T22:36:10.836Z,14.30
2018-07-21T22:38:39.897Z,15.97
2018-07-21T22:41:08.911Z,15.43
2018-07-21T22:43:38.094Z,15.20
2018-07-21T22:46:07.037Z,16.07
2018-07-21T22:48:36.050Z,16.30
2018-07-21T22:51:05.014Z,16.33
2018-07-21T22:53:34.204Z,16.80
2018-07-21T22:56:03.282Z,16.17
2018-07-21T22:58:32.492Z,17.50
2018-07-21T23:01:01.675Z,18.23
2018-07-21T23:03:36.932Z,16.67
2018-07-21T23:06:05.992Z,17.20
2018-07-21T23:08:35.014Z,16.47
2018-07-21T23:11:04.008Z,16.57
2018-07-21T23:13:34.107Z,20.40
2018-07-21T23:16:03.060Z,17.37
2018-07-21T23:18:32.121Z,18.27
2018-07-21T23:21:01.221Z,18.33
2018-07-21T23:23:30.244Z,17.23
2018-07-21T23:25:59.515Z,17.67
2018-07-21T23:28:28.774Z,18.47
2018-07-21T23:30:57.804Z,17.23
2018-07-21T23:33:26.893Z,18.07
2018-07-21T23:35:55.881Z,16.47
2018-07-21T23:38:25.291Z,16.73
2018-07-21T23:40:54.440Z,16.13
2018-07-21T23:43:23.440Z,16.30
2018-07-21T23:45:52.399Z,17.30
2018-07-21T23:50:55.986Z,16.33
2018-07-21T23:53:25.220Z,15.47
2018-07-21T23:55:54.224Z,15.30
2018-07-21T23:58:23.442Z,17.23
